Time;durP1;ratioP1;P1;durP2;ratioP2;P2;SDS_P1;SDS_P2;PMS_P1;PMS_P2;Temp;Humidity;BMP_temperature;BMP_pressure;BME280_temperature;BME280_humidity;BME280_pressure;Samples;Min_cycle;Max_cycle;Signal;HPM_P1;HPM_P2
2020/12/01 00:00:19;;;;;;;3.42;2.80;;;;;;;;;;5077060;28;20174;-61
2020/12/01 00:02:45;;;;;;;2.45;2.25;;;;;;;;;;5074699;28;20187;-61
2020/12/01 00:05:12;;;;;;;3.33;3.03;;;;;;;;;;5075949;28;20453;-61
2020/12/01 00:07:38;;;;;;;2.63;2.42;;;;;;;;;;5079189;28;20179;-61
2020/12/01 00:10:06;;;;;;;3.17;2.88;;;;;;;;;;5066296;28;20202;-61
2020/12/01 00:12:32;;;;;;;2.67;2.47;;;;;;;;;;5060313;28;20292;-61
2020/12/01 00:14:58;;;;;;;3.15;2.53;;;;;;;;;;5075720;28;20272;-61
2020/12/01 00:17:24;;;;;;;4.22;3.13;;;;;;;;;;5076330;28;20167;-61
2020/12/01 00:19:50;;;;;;;2.88;2.60;;;;;;;;;;5077016;28;20588;-61
2020/12/01 00:22:18;;;;;;;2.80;2.60;;;;;;;;;;5074602;28;20167;-61
2020/12/01 00:24:44;;;;;;;3.05;2.58;;;;;;;;;;5056047;28;20250;-61
2020/12/01 00:27:10;;;;;;;2.83;2.63;;;;;;;;;;5070437;28;20213;-61
2020/12/01 00:29:36;;;;;;;2.67;2.47;;;;;;;;;;5071693;28;20203;-61
2020/12/01 00:32:03;;;;;;;2.67;2.47;;;;;;;;;;5056161;28;20245;-61
2020/12/01 00:34:29;;;;;;;2.95;2.67;;;;;;;;;;5076831;28;20171;-61
2020/12/01 00:36:55;;;;;;;2.63;2.42;;;;;;;;;;5076153;28;20182;-61
2020/12/01 00:39:21;;;;;;;2.80;2.60;;;;;;;;;;5058985;28;20182;-61
2020/12/01 00:41:50;;;;;;;2.70;2.50;;;;;;;;;;5076047;28;20186;-61
2020/12/01 00:44:16;;;;;;;2.55;2.35;;;;;;;;;;5077576;28;20178;-61
2020/12/01 00:46:42;;;;;;;2.83;2.53;;;;;;;;;;5093791;28;20584;-61
2020/12/01 00:49:08;;;;;;;3.60;2.85;;;;;;;;;;5075464;28;20206;-61
2020/12/01 00:51:34;;;;;;;2.70;2.50;;;;;;;;;;5076462;28;20167;-61
2020/12/01 00:54:00;;;;;;;2.75;2.55;;;;;;;;;;5060154;28;20179;-61
2020/12/01 00:56:26;;;;;;;2.70;2.50;;;;;;;;;;5057649;28;20167;-61
2020/12/01 00:58:52;;;;;;;2.75;2.55;;;;;;;;;;5069474;28;20434;-61
2020/12/01 01:01:19;;;;;;;2.80;2.60;;;;;;;;;;5078850;28;20198;-61
2020/12/01 01:03:47;;;;;;;2.92;2.72;;;;;;;;;;5078207;28;20197;-61
2020/12/01 01:06:13;;;;;;;2.90;2.63;;;;;;;;;;5079039;28;20163;-61
2020/12/01 01:08:39;;;;;;;2.50;2.30;;;;;;;;;;5079096;28;20181;-61
2020/12/01 01:11:06;;;;;;;2.78;2.58;;;;;;;;;;5063948;28;20183;-61
2020/12/01 01:13:32;;;;;;;3.08;2.78;;;;;;;;;;5085069;28;20171;-61
2020/12/01 01:15:59;;;;;;;3.15;2.67;;;;;;;;;;5077215;28;20789;-61
2020/12/01 01:18:25;;;;;;;2.72;2.50;;;;;;;;;;5079396;28;20265;-61
2020/12/01 01:20:51;;;;;;;3.13;2.83;;;;;;;;;;5073421;28;20265;-61
2020/12/01 01:23:17;;;;;;;2.95;2.65;;;;;;;;;;5078694;28;20182;-61
2020/12/01 01:25:43;;;;;;;3.22;2.90;;;;;;;;;;5079024;28;20171;-61
2020/12/01 01:28:09;;;;;;;2.83;2.63;;;;;;;;;;5079115;28;20193;-61
2020/12/01 01:30:38;;;;;;;3.17;2.80;;;;;;;;;;5078441;28;20387;-61
2020/12/01 01:33:04;;;;;;;4.05;3.00;;;;;;;;;;5072343;28;20261;-61
2020/12/01 01:35:30;;;;;;;2.90;2.65;;;;;;;;;;5058753;28;20542;-61
2020/12/01 01:37:56;;;;;;;2.60;2.40;;;;;;;;;;5068252;28;20178;-62
2020/12/01 01:40:25;;;;;;;3.00;2.40;;;;;;;;;;5067922;28;20172;-61
2020/12/01 01:42:51;;;;;;;3.13;2.80;;;;;;;;;;5063477;28;20208;-61
2020/12/01 01:45:44;;;;;;;2.42;2.22;;;;;;;;;;5078304;28;20171;-61
2020/12/01 01:48:30;;;;;;;2.83;2.63;;;;;;;;;;5069461;28;20191;-61
2020/12/01 01:50:58;;;;;;;2.58;2.38;;;;;;;;;;5075718;28;20647;-61
2020/12/01 01:53:24;;;;;;;2.53;2.33;;;;;;;;;;5069579;28;20633;-61
2020/12/01 01:55:52;;;;;;;2.35;2.15;;;;;;;;;;5078473;28;20173;-61
2020/12/01 01:58:18;;;;;;;2.80;2.60;;;;;;;;;;5081213;28;20174;-61
2020/12/01 02:00:59;;;;;;;2.65;2.45;;;;;;;;;;5082244;28;20209;-61
2020/12/01 02:03:26;;;;;;;2.58;2.38;;;;;;;;;;5076016;28;20179;-61
2020/12/01 02:05:52;;;;;;;2.88;2.58;;;;;;;;;;5077692;28;20177;-61
2020/12/01 02:08:18;;;;;;;2.55;2.35;;;;;;;;;;5065784;28;20187;-61
2020/12/01 02:10:44;;;;;;;2.50;2.30;;;;;;;;;;5073408;28;20206;-61
2020/12/01 02:13:12;;;;;;;2.58;2.38;;;;;;;;;;5071437;28;20224;-61
2020/12/01 02:15:38;;;;;;;2.30;2.20;;;;;;;;;;5075595;28;20194;-61
2020/12/01 02:18:04;;;;;;;2.33;2.13;;;;;;;;;;5078327;28;20506;-61
2020/12/01 02:20:30;;;;;;;2.55;2.35;;;;;;;;;;5077522;28;20253;-61
2020/12/01 02:22:56;;;;;;;2.67;2.47;;;;;;;;;;5076720;28;20487;-61
2020/12/01 02:25:23;;;;;;;2.40;2.20;;;;;;;;;;5057814;28;20182;-61
2020/12/01 02:27:50;;;;;;;2.38;2.17;;;;;;;;;;5058271;28;20229;-61
2020/12/01 02:30:16;;;;;;;2.60;2.40;;;;;;;;;;5069531;28;20476;-61
2020/12/01 02:32:42;;;;;;;2.60;2.40;;;;;;;;;;5075209;28;20554;-61
2020/12/01 02:35:11;;;;;;;2.65;2.45;;;;;;;;;;5057428;28;20176;-61
2020/12/01 02:37:38;;;;;;;3.17;2.50;;;;;;;;;;5058062;28;20454;-61
2020/12/01 02:40:06;;;;;;;2.38;2.17;;;;;;;;;;5069487;28;20209;-61
2020/12/01 02:42:32;;;;;;;2.65;2.45;;;;;;;;;;5073498;28;20568;-61
2020/12/01 02:44:58;;;;;;;2.42;2.22;;;;;;;;;;5077390;28;20241;-61
2020/12/01 02:47:25;;;;;;;2.20;2.10;;;;;;;;;;5077523;28;20258;-61
2020/12/01 02:49:51;;;;;;;2.50;2.30;;;;;;;;;;5069336;28;20203;-61
2020/12/01 02:52:20;;;;;;;2.58;2.38;;;;;;;;;;5059400;28;20203;-61
2020/12/01 02:54:46;;;;;;;2.58;2.38;;;;;;;;;;5078076;28;20217;-61
2020/12/01 02:57:12;;;;;;;2.55;2.38;;;;;;;;;;5076952;28;20247;-61
2020/12/01 02:59:38;;;;;;;2.45;2.25;;;;;;;;;;5069008;28;20471;-61
2020/12/01 03:02:04;;;;;;;2.58;2.38;;;;;;;;;;5057216;28;20198;-61
2020/12/01 03:04:29;;;;;;;2.47;2.28;;;;;;;;;;5064900;28;20228;-61
2020/12/01 03:06:55;;;;;;;2.47;2.25;;;;;;;;;;5062933;28;20186;-61
2020/12/01 03:09:21;;;;;;;2.45;2.25;;;;;;;;;;5078695;28;20202;-61
2020/12/01 03:11:48;;;;;;;2.80;2.60;;;;;;;;;;5077238;28;20171;-61
2020/12/01 03:14:14;;;;;;;2.55;2.35;;;;;;;;;;5070907;28;20558;-61
2020/12/01 03:16:40;;;;;;;2.47;2.28;;;;;;;;;;5058188;28;20195;-61
2020/12/01 03:19:06;;;;;;;2.50;2.30;;;;;;;;;;5056629;28;20292;-61
2020/12/01 03:21:32;;;;;;;2.40;2.20;;;;;;;;;;5086153;28;20182;-61
2020/12/01 03:23:58;;;;;;;2.50;2.30;;;;;;;;;;5093056;28;20566;-60
2020/12/01 03:26:24;;;;;;;2.60;2.40;;;;;;;;;;5076928;28;20208;-61
2020/12/01 03:28:50;;;;;;;2.40;2.20;;;;;;;;;;5061948;28;20190;-61
2020/12/01 03:31:19;;;;;;;2.40;2.20;;;;;;;;;;5056694;28;20187;-61
2020/12/01 03:33:45;;;;;;;2.17;2.05;;;;;;;;;;5069276;28;20182;-61
2020/12/01 03:36:11;;;;;;;2.30;2.10;;;;;;;;;;5063104;28;20481;-61
2020/12/01 03:38:37;;;;;;;2.60;2.40;;;;;;;;;;5076076;28;20194;-61
2020/12/01 03:41:04;;;;;;;2.60;2.40;;;;;;;;;;5058896;28;20187;-61
2020/12/01 03:43:31;;;;;;;2.38;2.17;;;;;;;;;;5056765;28;20190;-61
2020/12/01 03:45:57;;;;;;;2.17;1.98;;;;;;;;;;5074987;28;20228;-61
2020/12/01 03:48:23;;;;;;;2.15;1.95;;;;;;;;;;5082369;28;20205;-61
2020/12/01 03:50:49;;;;;;;2.28;2.08;;;;;;;;;;5096737;28;20206;-61
2020/12/01 03:53:15;;;;;;;2.00;1.90;;;;;;;;;;5086070;28;20585;-61
2020/12/01 03:55:41;;;;;;;2.20;2.00;;;;;;;;;;5068113;28;20573;-61
2020/12/01 03:58:07;;;;;;;2.30;2.10;;;;;;;;;;5076412;28;20433;-61
2020/12/01 04:00:33;;;;;;;2.55;2.35;;;;;;;;;;5066841;28;20210;-61
2020/12/01 04:02:59;;;;;;;2.13;2.00;;;;;;;;;;5064227;28;20193;-61
2020/12/01 04:05:27;;;;;;;2.13;2.03;;;;;;;;;;5077052;28;20195;-61
2020/12/01 04:07:53;;;;;;;2.10;2.00;;;;;;;;;;5076627;28;20170;-60
2020/12/01 04:10:20;;;;;;;1.95;1.85;;;;;;;;;;5093631;28;20205;-60
2020/12/01 04:12:46;;;;;;;2.30;2.10;;;;;;;;;;5083828;28;20185;-60
2020/12/01 04:15:13;;;;;;;1.80;1.70;;;;;;;;;;5066596;28;20170;-60
2020/12/01 04:17:39;;;;;;;2.22;2.08;;;;;;;;;;5075913;28;20216;-60
2020/12/01 04:20:06;;;;;;;2.38;2.17;;;;;;;;;;5075460;28;20213;-60
2020/12/01 04:22:32;;;;;;;2.20;2.00;;;;;;;;;;5074880;28;20186;-60
2020/12/01 04:24:58;;;;;;;2.35;2.15;;;;;;;;;;5075261;28;20179;-61
2020/12/01 04:27:24;;;;;;;2.30;2.10;;;;;;;;;;5075339;28;20206;-61
2020/12/01 04:29:50;;;;;;;2.20;2.00;;;;;;;;;;5070601;28;20230;-61
2020/12/01 04:32:16;;;;;;;2.17;1.98;;;;;;;;;;5084862;28;20178;-61
2020/12/01 04:34:42;;;;;;;2.30;2.13;;;;;;;;;;5070190;28;20228;-61
2020/12/01 04:37:08;;;;;;;2.00;1.90;;;;;;;;;;5085458;28;20194;-61
2020/12/01 04:39:34;;;;;;;2.35;2.15;;;;;;;;;;5078258;28;20178;-61
2020/12/01 04:42:01;;;;;;;2.38;2.17;;;;;;;;;;5080231;28;20170;-61
2020/12/01 04:44:42;;;;;;;2.30;2.10;;;;;;;;;;5078986;28;20179;-61
2020/12/01 04:47:21;;;;;;;2.03;1.92;;;;;;;;;;5079434;28;20178;-60
2020/12/01 04:49:52;;;;;;;1.95;1.85;;;;;;;;;;5080048;28;20255;-60
2020/12/01 04:52:37;;;;;;;2.25;2.08;;;;;;;;;;5080035;28;20159;-60
2020/12/01 04:55:21;;;;;;;2.13;2.03;;;;;;;;;;5076097;28;20254;-60
2020/12/01 04:57:50;;;;;;;2.05;1.95;;;;;;;;;;5073041;28;20198;-60
2020/12/01 05:00:23;;;;;;;1.90;1.80;;;;;;;;;;5078500;28;20185;-60
2020/12/01 05:02:59;;;;;;;2.22;2.03;;;;;;;;;;5092700;28;20198;-60
2020/12/01 05:05:45;;;;;;;2.00;1.90;;;;;;;;;;5064872;28;20185;-60
2020/12/01 05:08:24;;;;;;;1.98;1.88;;;;;;;;;;5059806;28;20190;-60
2020/12/01 05:10:52;;;;;;;1.98;1.88;;;;;;;;;;5066247;28;20202;-60
2020/12/01 05:13:21;;;;;;;1.92;1.83;;;;;;;;;;5079279;28;20154;-60
2020/12/01 05:15:49;;;;;;;2.15;2.05;;;;;;;;;;5060861;28;20175;-60
2020/12/01 05:18:15;;;;;;;2.10;1.98;;;;;;;;;;5059738;28;20245;-61
2020/12/01 05:20:48;;;;;;;2.08;1.90;;;;;;;;;;5059609;28;20193;-61
2020/12/01 05:23:15;;;;;;;2.08;1.98;;;;;;;;;;5059551;28;20431;-61
2020/12/01 05:25:42;;;;;;;2.10;2.00;;;;;;;;;;5061239;28;20186;-61
2020/12/01 05:28:12;;;;;;;2.00;1.90;;;;;;;;;;5068754;28;20264;-61
2020/12/01 05:30:39;;;;;;;3.40;2.28;;;;;;;;;;5079420;28;20527;-60
2020/12/01 05:33:17;;;;;;;7.95;2.20;;;;;;;;;;5070668;28;20259;-60
2020/12/01 05:35:44;;;;;;;4.20;2.20;;;;;;;;;;5058658;28;20206;-60
2020/12/01 05:38:12;;;;;;;6.60;2.00;;;;;;;;;;5058959;28;20176;-60
2020/12/01 05:40:46;;;;;;;2.08;1.98;;;;;;;;;;5059097;28;20207;-60
2020/12/01 05:43:21;;;;;;;4.80;2.35;;;;;;;;;;5067177;28;20183;-60
2020/12/01 05:45:47;;;;;;;3.97;2.20;;;;;;;;;;5058624;28;20246;-60
2020/12/01 05:48:13;;;;;;;2.42;2.22;;;;;;;;;;5068233;28;20558;-61
2020/12/01 05:50:46;;;;;;;2.65;2.45;;;;;;;;;;5078997;28;20198;-61
2020/12/01 05:53:12;;;;;;;4.13;2.90;;;;;;;;;;5069172;28;20190;-61
2020/12/01 05:55:38;;;;;;;4.45;2.58;;;;;;;;;;5084094;28;20279;-61
2020/12/01 05:58:06;;;;;;;3.65;2.30;;;;;;;;;;5089601;28;20181;-61
2020/12/01 06:00:37;;;;;;;4.07;2.53;;;;;;;;;;5066729;28;20253;-61
2020/12/01 06:03:08;;;;;;;2.67;2.45;;;;;;;;;;5057721;28;20265;-61
2020/12/01 06:05:37;;;;;;;4.13;2.50;;;;;;;;;;5057635;28;20179;-61
2020/12/01 06:08:19;;;;;;;3.33;2.33;;;;;;;;;;5074704;28;20195;-61
2020/12/01 06:10:48;;;;;;;3.90;2.42;;;;;;;;;;5074874;28;20198;-61
2020/12/01 06:13:33;;;;;;;2.47;2.15;;;;;;;;;;5067484;28;20174;-61
2020/12/01 06:16:08;;;;;;;4.30;2.72;;;;;;;;;;5065157;28;20584;-61
2020/12/01 06:18:44;;;;;;;3.47;2.20;;;;;;;;;;5058545;28;20162;-61
2020/12/01 06:21:10;;;;;;;4.47;2.55;;;;;;;;;;5058515;28;20253;-61
2020/12/01 06:23:41;;;;;;;2.78;2.55;;;;;;;;;;5072676;28;20299;-61
2020/12/01 06:26:16;;;;;;;2.95;2.30;;;;;;;;;;5097784;28;20189;-61
2020/12/01 06:28:53;;;;;;;2.63;2.42;;;;;;;;;;5071106;28;20187;-61
2020/12/01 06:31:37;;;;;;;3.35;2.47;;;;;;;;;;5057443;28;20183;-61
2020/12/01 06:34:27;;;;;;;3.33;2.47;;;;;;;;;;5074115;28;20178;-61
2020/12/01 06:36:53;;;;;;;2.83;2.50;;;;;;;;;;5077249;28;20434;-61
2020/12/01 06:39:21;;;;;;;4.07;2.60;;;;;;;;;;5058817;28;20202;-61
2020/12/01 06:41:50;;;;;;;2.20;2.00;;;;;;;;;;5070123;28;20191;-61
2020/12/01 06:44:19;;;;;;;3.92;2.55;;;;;;;;;;5076581;28;20569;-61
2020/12/01 06:46:45;;;;;;;2.70;2.50;;;;;;;;;;5077034;28;20171;-61
2020/12/01 06:49:15;;;;;;;2.60;2.40;;;;;;;;;;5057980;28;20473;-61
2020/12/01 06:51:41;;;;;;;2.78;2.30;;;;;;;;;;5074414;28;20249;-61
2020/12/01 06:54:12;;;;;;;3.42;2.22;;;;;;;;;;5062765;28;20183;-61
2020/12/01 06:56:39;;;;;;;2.22;2.10;;;;;;;;;;5076850;28;20288;-61
2020/12/01 06:59:09;;;;;;;2.30;2.10;;;;;;;;;;5059848;28;20183;-61
2020/12/01 07:01:36;;;;;;;2.42;2.22;;;;;;;;;;5057079;28;20271;-61
2020/12/01 07:04:08;;;;;;;3.20;2.10;;;;;;;;;;5073106;28;20460;-61
2020/12/01 07:06:46;;;;;;;2.28;2.10;;;;;;;;;;5077472;28;20175;-61
2020/12/01 07:09:27;;;;;;;3.03;2.20;;;;;;;;;;5066649;28;20209;-61
2020/12/01 07:11:59;;;;;;;3.10;2.63;;;;;;;;;;5077388;28;20237;-61
2020/12/01 07:14:34;;;;;;;2.28;2.08;;;;;;;;;;5076389;28;20182;-61
2020/12/01 07:17:00;;;;;;;2.42;2.17;;;;;;;;;;5077359;28;20169;-61
2020/12/01 07:19:32;;;;;;;3.38;2.33;;;;;;;;;;5081771;28;20185;-61
2020/12/01 07:22:04;;;;;;;2.20;1.98;;;;;;;;;;5077393;28;20171;-61
2020/12/01 07:24:39;;;;;;;7.05;5.50;;;;;;;;;;5072650;28;20189;-55
2020/12/01 07:27:12;;;;;;;6.30;5.68;;;;;;;;;;5064739;28;20272;-55
2020/12/01 07:29:44;;;;;;;8.05;7.22;;;;;;;;;;5057002;28;20194;-55
2020/12/01 07:32:15;;;;;;;10.77;8.50;;;;;;;;;;5067057;28;20561;-41
2020/12/01 07:34:41;;;;;;;8.38;7.00;;;;;;;;;;5075506;28;20190;-41
2020/12/01 07:37:16;;;;;;;8.63;6.97;;;;;;;;;;5074983;28;20178;-41
2020/12/01 07:39:56;;;;;;;9.85;7.47;;;;;;;;;;5075740;28;20239;-44
2020/12/01 07:42:24;;;;;;;10.07;6.45;;;;;;;;;;5078068;28;20182;-41
2020/12/01 07:44:50;;;;;;;4.95;4.10;;;;;;;;;;5095486;28;20170;-41
2020/12/01 07:47:18;;;;;;;4.32;3.65;;;;;;;;;;5096367;28;20474;-43
2020/12/01 07:49:44;;;;;;;9.27;3.50;;;;;;;;;;5095503;28;20471;-41
2020/12/01 07:52:19;;;;;;;7.07;3.75;;;;;;;;;;5094131;28;20181;-40
2020/12/01 07:54:47;;;;;;;4.45;3.42;;;;;;;;;;5094057;28;20185;-55
2020/12/01 07:57:17;;;;;;;5.60;3.40;;;;;;;;;;5095617;28;20581;-47
2020/12/01 07:59:44;;;;;;;3.55;2.88;;;;;;;;;;5095117;28;20192;-45
2020/12/01 08:02:10;;;;;;;3.35;3.00;;;;;;;;;;5095429;28;20257;-45
2020/12/01 08:04:36;;;;;;;3.65;3.20;;;;;;;;;;5094860;28;20166;-44
2020/12/01 08:07:03;;;;;;;5.57;3.60;;;;;;;;;;5086139;28;20243;-45
2020/12/01 08:09:30;;;;;;;5.15;3.25;;;;;;;;;;5082608;28;20205;-47
2020/12/01 08:12:00;;;;;;;3.97;3.15;;;;;;;;;;5086316;28;20182;-46
2020/12/01 08:14:26;;;;;;;4.28;3.00;;;;;;;;;;5082194;28;20170;-49
2020/12/01 08:17:01;;;;;;;4.22;3.10;;;;;;;;;;5075175;28;20178;-46
2020/12/01 08:19:28;;;;;;;3.47;2.80;;;;;;;;;;5075276;28;20247;-47
2020/12/01 08:21:55;;;;;;;3.25;2.83;;;;;;;;;;5075183;28;20243;-47
2020/12/01 08:24:22;;;;;;;4.25;2.72;;;;;;;;;;5074579;28;20554;-47
2020/12/01 08:26:59;;;;;;;3.10;2.80;;;;;;;;;;5074875;28;20218;-46
2020/12/01 08:29:29;;;;;;;5.78;3.20;;;;;;;;;;5075052;28;20190;-47
2020/12/01 08:32:14;;;;;;;4.97;2.92;;;;;;;;;;5074773;28;20181;-46
2020/12/01 08:34:43;;;;;;;3.30;3.00;;;;;;;;;;5074330;28;20194;-47
2020/12/01 08:37:21;;;;;;;3.47;3.17;;;;;;;;;;5073478;28;20166;-48
2020/12/01 08:40:00;;;;;;;4.88;2.72;;;;;;;;;;5055735;28;20520;-46
2020/12/01 08:42:45;;;;;;;4.10;3.30;;;;;;;;;;5054718;28;20598;-46
2020/12/01 08:45:13;;;;;;;3.70;3.38;;;;;;;;;;5054034;28;20190;-47
2020/12/01 08:47:43;;;;;;;5.07;3.50;;;;;;;;;;5058500;28;20253;-48
2020/12/01 08:50:15;;;;;;;4.22;2.90;;;;;;;;;;5059134;28;20633;-46
2020/12/01 08:52:43;;;;;;;4.18;3.15;;;;;;;;;;5075056;28;20217;-46
2020/12/01 08:55:09;;;;;;;3.63;3.00;;;;;;;;;;5078272;28;20186;-46
2020/12/01 08:57:37;;;;;;;5.93;3.15;;;;;;;;;;5070507;28;20179;-46
2020/12/01 09:00:11;;;;;;;4.88;3.22;;;;;;;;;;5054703;28;20229;-47
2020/12/01 09:02:42;;;;;;;2.97;2.67;;;;;;;;;;5066915;28;20312;-46
2020/12/01 09:05:19;;;;;;;3.75;2.90;;;;;;;;;;5073637;28;20190;-45
2020/12/01 09:07:46;;;;;;;4.38;2.80;;;;;;;;;;5073481;28;20648;-45
2020/12/01 09:10:17;;;;;;;3.60;3.05;;;;;;;;;;5074470;28;20205;-46
2020/12/01 09:12:55;;;;;;;4.05;2.80;;;;;;;;;;5072921;28;20344;-45
2020/12/01 09:15:36;;;;;;;3.15;2.85;;;;;;;;;;5074508;28;20158;-45
2020/12/01 09:18:33;;;;;;;4.55;2.85;;;;;;;;;;5068656;28;20179;-48
2020/12/01 09:23:25;;;;;;;3.33;2.92;;;;;;;;;;5084303;28;20189;-45
2020/12/01 09:25:52;;;;;;;3.30;3.00;;;;;;;;;;5091126;28;20182;-45
2020/12/01 09:28:19;;;;;;;3.10;2.83;;;;;;;;;;5091724;28;20204;-49
2020/12/01 09:30:45;;;;;;;2.65;2.45;;;;;;;;;;5071425;28;20263;-46
2020/12/01 09:33:13;;;;;;;4.53;2.97;;;;;;;;;;5083125;28;20234;-46
2020/12/01 09:35:39;;;;;;;2.75;2.40;;;;;;;;;;5077403;28;20250;-47
2020/12/01 09:38:06;;;;;;;3.42;3.08;;;;;;;;;;5076997;28;20189;-46
2020/12/01 09:40:33;;;;;;;3.20;2.90;;;;;;;;;;5078020;28;20216;-47
2020/12/01 09:43:49;;;;;;;4.40;3.38;;;;;;;;;;5069414;28;20186;-44
2020/12/01 09:45:49;;;;;;;3.63;2.97;;;;;;;;;;5068262;28;20193;-44
2020/12/01 09:48:26;;;;;;;4.45;2.90;;;;;;;;;;5080125;28;20182;-43
2020/12/01 09:50:52;;;;;;;2.92;2.63;;;;;;;;;;5089512;28;20206;-46
2020/12/01 09:56:23;;;;;;;3.20;2.90;;;;;;;;;;5097253;28;20184;-48
2020/12/01 10:21:01;;;;;;;11.15;4.28;;;;;;;;;;5058438;28;20624;-41
2020/12/01 10:26:22;;;;;;;9.73;4.30;;;;;;;;;;5076074;28;20282;-44
2020/12/01 10:34:28;;;;;;;11.13;3.70;;;;;;;;;;5075264;28;20219;-46
2020/12/01 10:36:44;;;;;;;8.82;4.22;;;;;;;;;;5073596;28;20197;-44
2020/12/01 10:39:10;;;;;;;8.23;3.72;;;;;;;;;;5056941;28;20175;-45
2020/12/01 10:41:42;;;;;;;13.95;4.80;;;;;;;;;;5063675;28;20300;-45
2020/12/01 10:44:08;;;;;;;9.25;4.32;;;;;;;;;;5057205;28;20182;-45
2020/12/01 10:46:35;;;;;;;8.20;4.05;;;;;;;;;;5056647;28;20210;-45
2020/12/01 10:49:01;;;;;;;8.10;4.43;;;;;;;;;;5071718;28;20174;-45
2020/12/01 10:51:27;;;;;;;8.65;4.28;;;;;;;;;;5075857;28;20213;-45
2020/12/01 10:53:53;;;;;;;9.57;4.35;;;;;;;;;;5068772;28;20171;-47
2020/12/01 10:56:19;;;;;;;10.80;4.55;;;;;;;;;;5057513;28;20282;-46
2020/12/01 10:58:46;;;;;;;8.48;4.72;;;;;;;;;;5061894;28;20175;-45
2020/12/01 11:01:13;;;;;;;7.15;4.10;;;;;;;;;;5064564;28;20204;-48
2020/12/01 11:03:39;;;;;;;10.30;4.85;;;;;;;;;;5063323;28;20183;-43
2020/12/01 11:06:05;;;;;;;12.68;5.28;;;;;;;;;;5075050;28;20561;-44
2020/12/01 11:08:31;;;;;;;17.77;6.28;;;;;;;;;;5076371;28;20193;-46
2020/12/01 11:10:57;;;;;;;18.17;7.03;;;;;;;;;;5077017;28;20577;-48
2020/12/01 11:13:23;;;;;;;21.98;6.47;;;;;;;;;;5056826;28;20465;-47
2020/12/01 11:15:49;;;;;;;15.35;6.32;;;;;;;;;;5055153;28;20212;-46
2020/12/01 11:18:15;;;;;;;16.63;5.82;;;;;;;;;;5067630;28;20178;-48
2020/12/01 11:20:41;;;;;;;11.68;6.18;;;;;;;;;;5074552;28;20186;-48
2020/12/01 11:23:07;;;;;;;14.68;5.88;;;;;;;;;;5081670;28;20185;-46
2020/12/01 11:25:33;;;;;;;13.13;5.78;;;;;;;;;;5088224;28;20261;-47
2020/12/01 11:27:59;;;;;;;11.45;5.38;;;;;;;;;;5094504;28;20174;-47
2020/12/01 11:30:25;;;;;;;11.48;5.03;;;;;;;;;;5080720;28;20198;-47
2020/12/01 11:32:51;;;;;;;10.75;5.65;;;;;;;;;;5076027;28;20190;-46
2020/12/01 11:35:18;;;;;;;18.67;8.48;;;;;;;;;;5085117;28;20580;-45
2020/12/01 11:37:44;;;;;;;17.92;9.15;;;;;;;;;;5086861;28;20185;-44
2020/12/01 11:40:11;;;;;;;16.55;7.72;;;;;;;;;;5095283;28;20173;-44
2020/12/01 11:42:37;;;;;;;15.15;6.80;;;;;;;;;;5080145;28;20190;-43
2020/12/01 11:45:04;;;;;;;15.80;6.53;;;;;;;;;;5074869;28;20175;-47
2020/12/01 11:47:30;;;;;;;10.68;5.85;;;;;;;;;;5075325;28;20166;-48
2020/12/01 11:49:56;;;;;;;9.77;5.47;;;;;;;;;;5076003;28;20201;-48
2020/12/01 11:52:22;;;;;;;10.45;5.65;;;;;;;;;;5075035;28;20651;-45
2020/12/01 11:54:48;;;;;;;11.05;5.65;;;;;;;;;;5074552;28;20497;-47
2020/12/01 11:57:14;;;;;;;10.63;5.28;;;;;;;;;;5073805;28;20181;-45
2020/12/01 11:59:40;;;;;;;8.85;4.53;;;;;;;;;;5055329;28;20191;-46
2020/12/01 12:02:06;;;;;;;7.55;4.95;;;;;;;;;;5055444;28;20185;-49
2020/12/01 12:04:32;;;;;;;7.63;4.65;;;;;;;;;;5055029;28;20434;-46
2020/12/01 12:07:00;;;;;;;12.65;4.53;;;;;;;;;;5073759;28;20189;-48
2020/12/01 12:09:26;;;;;;;8.88;5.00;;;;;;;;;;5072022;28;20287;-48
2020/12/01 12:11:52;;;;;;;7.45;4.30;;;;;;;;;;5075405;28;20205;-47
2020/12/01 12:14:18;;;;;;;7.53;4.55;;;;;;;;;;5074040;28;20221;-46
2020/12/01 12:16:44;;;;;;;17.13;7.45;;;;;;;;;;5075553;28;20175;-46
2020/12/01 12:19:10;;;;;;;55.80;17.63;;;;;;;;;;5055576;28;20212;-46
2020/12/01 12:21:36;;;;;;;47.28;16.83;;;;;;;;;;5055515;28;20192;-46
2020/12/01 12:24:02;;;;;;;43.08;16.50;;;;;;;;;;5054826;28;20187;-46
2020/12/01 12:26:28;;;;;;;45.72;16.17;;;;;;;;;;5055346;28;20167;-46
2020/12/01 12:28:54;;;;;;;48.88;16.17;;;;;;;;;;5070454;28;20187;-47
2020/12/01 12:31:20;;;;;;;39.75;15.43;;;;;;;;;;5056018;28;20293;-47
2020/12/01 12:33:46;;;;;;;35.88;14.07;;;;;;;;;;5055095;28;20183;-46
2020/12/01 12:36:13;;;;;;;33.65;14.13;;;;;;;;;;5062216;28;20185;-49
2020/12/01 12:38:39;;;;;;;39.17;14.73;;;;;;;;;;5075565;28;20315;-48
2020/12/01 12:41:05;;;;;;;36.17;13.80;;;;;;;;;;5067452;28;20621;-49
2020/12/01 12:43:31;;;;;;;35.88;14.20;;;;;;;;;;5074062;28;20193;-46
2020/12/01 12:45:57;;;;;;;31.13;13.45;;;;;;;;;;5074536;28;20603;-44
2020/12/01 12:48:24;;;;;;;29.20;13.23;;;;;;;;;;5063945;28;20187;-47
2020/12/01 12:50:51;;;;;;;30.58;12.82;;;;;;;;;;5056516;28;20199;-46
2020/12/01 12:53:17;;;;;;;31.17;11.80;;;;;;;;;;5073773;28;20183;-48
2020/12/01 12:55:43;;;;;;;33.80;12.15;;;;;;;;;;5065107;28;20258;-48
2020/12/01 12:58:09;;;;;;;30.42;13.18;;;;;;;;;;5058582;28;20600;-43
2020/12/01 13:00:35;;;;;;;29.15;12.40;;;;;;;;;;5059037;28;20180;-48
2020/12/01 13:03:01;;;;;;;26.83;12.32;;;;;;;;;;5064182;28;20244;-47
2020/12/01 13:05:28;;;;;;;31.20;11.30;;;;;;;;;;5058225;28;20167;-47
2020/12/01 13:07:55;;;;;;;24.92;12.18;;;;;;;;;;5069545;28;20193;-48
2020/12/01 13:10:21;;;;;;;25.80;11.00;;;;;;;;;;5084201;28;20201;-49
2020/12/01 13:12:47;;;;;;;27.10;11.25;;;;;;;;;;5074859;28;20190;-47
2020/12/01 13:15:13;;;;;;;24.02;11.48;;;;;;;;;;5058122;28;20179;-46
2020/12/01 13:17:40;;;;;;;26.48;11.75;;;;;;;;;;5058309;28;20427;-46
2020/12/01 13:20:07;;;;;;;25.63;10.63;;;;;;;;;;5077795;28;20201;-45
2020/12/01 13:22:33;;;;;;;23.98;10.40;;;;;;;;;;5078407;28;20262;-46
2020/12/01 13:24:59;;;;;;;24.33;10.93;;;;;;;;;;5072307;28;20269;-46
2020/12/01 13:27:25;;;;;;;23.45;12.07;;;;;;;;;;5058228;28;20233;-46
2020/12/01 13:29:51;;;;;;;20.95;10.55;;;;;;;;;;5057153;28;20195;-46
2020/12/01 13:32:17;;;;;;;21.27;10.40;;;;;;;;;;5058196;28;20457;-46
2020/12/01 13:34:43;;;;;;;24.17;11.20;;;;;;;;;;5057613;28;20179;-45
2020/12/01 13:37:09;;;;;;;20.98;10.80;;;;;;;;;;5058030;28;20179;-47
2020/12/01 13:39:35;;;;;;;22.30;10.45;;;;;;;;;;5058027;28;20190;-45
2020/12/01 13:42:01;;;;;;;21.05;10.32;;;;;;;;;;5058030;28;20545;-48
2020/12/01 13:44:27;;;;;;;23.45;11.05;;;;;;;;;;5057276;28;20179;-46
2020/12/01 13:46:54;;;;;;;17.88;9.70;;;;;;;;;;5057856;28;20179;-45
2020/12/01 13:49:20;;;;;;;25.65;10.73;;;;;;;;;;5057708;28;20182;-46
2020/12/01 13:51:46;;;;;;;19.48;9.95;;;;;;;;;;5064554;28;20191;-47
2020/12/01 13:54:12;;;;;;;18.98;10.05;;;;;;;;;;5086651;28;20182;-48
2020/12/01 13:56:38;;;;;;;19.73;9.80;;;;;;;;;;5057815;28;20547;-50
2020/12/01 13:59:04;;;;;;;19.08;10.55;;;;;;;;;;5057684;28;20179;-44
2020/12/01 14:01:30;;;;;;;17.40;9.85;;;;;;;;;;5067687;28;20200;-45
2020/12/01 14:03:56;;;;;;;17.70;10.50;;;;;;;;;;5095072;28;20232;-47
2020/12/01 14:06:22;;;;;;;16.55;10.35;;;;;;;;;;5075711;28;20273;-48
2020/12/01 14:08:48;;;;;;;18.20;10.43;;;;;;;;;;5056993;28;20187;-46
2020/12/01 14:11:16;;;;;;;17.02;10.15;;;;;;;;;;5057475;28;20278;-44
2020/12/01 14:13:42;;;;;;;18.65;10.00;;;;;;;;;;5057466;28;20186;-47
2020/12/01 14:16:08;;;;;;;21.13;10.88;;;;;;;;;;5056836;28;20175;-46
2020/12/01 14:18:35;;;;;;;16.63;10.70;;;;;;;;;;5057409;28;20221;-47
2020/12/01 14:21:04;;;;;;;13.75;10.10;;;;;;;;;;5090407;28;20868;-48
2020/12/01 14:23:31;;;;;;;16.42;10.32;;;;;;;;;;5097191;28;20599;-44
2020/12/01 14:25:57;;;;;;;15.23;9.38;;;;;;;;;;5095443;28;20542;-44
2020/12/01 14:28:23;;;;;;;16.00;8.57;;;;;;;;;;5097329;28;20202;-47
2020/12/01 14:30:50;;;;;;;14.93;8.30;;;;;;;;;;5092725;28;20234;-47
2020/12/01 14:33:16;;;;;;;14.38;9.20;;;;;;;;;;5087252;28;20633;-46
2020/12/01 14:35:42;;;;;;;15.30;9.00;;;;;;;;;;5096368;28;20261;-45
2020/12/01 14:38:08;;;;;;;14.82;8.77;;;;;;;;;;5097037;28;20549;-46
2020/12/01 14:40:35;;;;;;;14.73;8.45;;;;;;;;;;5091055;28;20182;-48
2020/12/01 14:43:03;;;;;;;18.42;8.32;;;;;;;;;;5062180;28;20186;-48
2020/12/01 14:45:30;;;;;;;17.17;8.65;;;;;;;;;;5071629;28;20225;-46
2020/12/01 14:48:05;;;;;;;15.52;8.60;;;;;;;;;;5065184;28;20216;-45
2020/12/01 14:50:31;;;;;;;15.60;8.05;;;;;;;;;;5058740;28;20202;-45
2020/12/01 14:52:57;;;;;;;14.32;7.82;;;;;;;;;;5073800;28;20285;-49
2020/12/01 14:55:42;;;;;;;12.95;8.10;;;;;;;;;;5076322;28;20432;-47
2020/12/01 14:58:24;;;;;;;13.18;7.82;;;;;;;;;;5068766;28;20460;-47
2020/12/01 15:00:56;;;;;;;10.10;7.50;;;;;;;;;;5068231;28;20268;-47
2020/12/01 15:03:22;;;;;;;12.30;7.75;;;;;;;;;;5059974;28;20190;-47
2020/12/01 15:05:54;;;;;;;12.20;8.02;;;;;;;;;;5086002;28;20190;-46
2020/12/01 15:08:45;;;;;;;9.27;7.50;;;;;;;;;;5073373;28;20179;-46
2020/12/01 15:11:20;;;;;;;11.55;7.88;;;;;;;;;;5076010;28;20202;-45
2020/12/01 15:13:46;;;;;;;13.63;8.02;;;;;;;;;;5075050;28;20178;-44
2020/12/01 15:16:30;;;;;;;10.95;7.97;;;;;;;;;;5075402;28;20171;-47
2020/12/01 15:18:56;;;;;;;11.35;7.22;;;;;;;;;;5069283;28;20183;-47
2020/12/01 15:21:25;;;;;;;11.30;7.38;;;;;;;;;;5066678;28;20176;-46